Time;durP1;ratioP1;P1;durP2;ratioP2;P2;SDS_P1;SDS_P2;PMS_P1;PMS_P2;Temp;Humidity;BMP_temperature;BMP_pressure;BME280_temperature;BME280_humidity;BME280_pressure;Samples;Min_cycle;Max_cycle;Signal;HPM_P1;HPM_P2
2022/07/01 00:00:46;;;;;;;4.30;1.90;;;15.50;99.90;;;;;;5066990;28;20205;-78
2022/07/01 00:03:15;;;;;;;5.30;1.87;;;15.50;99.90;;;;;;5055205;28;20224;-79
2022/07/01 00:05:41;;;;;;;4.07;1.50;;;15.50;99.90;;;;;;5067161;28;20300;-80
2022/07/01 00:08:08;;;;;;;1.83;1.20;;;15.50;99.90;;;;;;5067338;28;20302;-79
2022/07/01 00:10:37;;;;;;;2.67;1.17;;;15.50;99.90;;;;;;5066360;28;20747;-81
2022/07/01 00:13:04;;;;;;;3.07;1.33;;;15.50;99.90;;;;;;5053449;28;20216;-79
2022/07/01 00:15:31;;;;;;;2.27;1.00;;;15.50;99.90;;;;;;5066485;28;20204;-79
2022/07/01 00:17:57;;;;;;;1.27;1.00;;;15.50;99.90;;;;;;5058510;28;20235;-80
2022/07/01 00:20:26;;;;;;;2.30;1.20;;;15.40;99.90;;;;;;5067001;28;20734;-79
2022/07/01 00:22:53;;;;;;;1.33;1.00;;;15.40;99.90;;;;;;5066296;28;20295;-81
2022/07/01 00:25:20;;;;;;;1.77;1.23;;;15.30;99.90;;;;;;5066662;28;20207;-79
2022/07/01 00:27:47;;;;;;;3.23;1.10;;;15.30;99.90;;;;;;5067107;28;20209;-79
2022/07/01 00:30:15;;;;;;;3.37;1.20;;;15.30;99.90;;;;;;5066765;28;20205;-80
2022/07/01 00:32:42;;;;;;;8.03;1.50;;;15.30;99.90;;;;;;5067038;28;20208;-80
2022/07/01 00:35:10;;;;;;;2.67;1.30;;;15.20;99.90;;;;;;5059729;28;20941;-79
2022/07/01 00:37:40;;;;;;;4.03;1.50;;;15.20;99.90;;;;;;5065942;28;20258;-79
2022/07/01 00:40:08;;;;;;;1.90;1.30;;;15.20;99.90;;;;;;5066860;28;20217;-78
2022/07/01 00:42:40;;;;;;;7.80;1.83;;;15.20;99.90;;;;;;5053349;28;20232;-79
2022/07/01 00:45:09;;;;;;;2.83;1.80;;;15.20;99.90;;;;;;5065399;28;20209;-78
2022/07/01 00:47:36;;;;;;;4.03;1.93;;;15.20;99.90;;;;;;5065211;28;20206;-80
2022/07/01 00:50:07;;;;;;;2.77;1.70;;;15.10;99.90;;;;;;5066750;28;20201;-78
2022/07/01 00:52:34;;;;;;;3.33;1.93;;;15.10;99.90;;;;;;5065888;28;20225;-78
2022/07/01 00:55:04;;;;;;;4.27;2.03;;;15.10;99.90;;;;;;5067141;28;20221;-77
2022/07/01 00:57:32;;;;;;;2.80;1.77;;;15.10;99.90;;;;;;5060119;28;20684;-78
2022/07/01 00:59:59;;;;;;;3.00;1.93;;;15.00;99.90;;;;;;5067221;28;20259;-79
2022/07/01 01:02:25;;;;;;;4.03;2.07;;;15.00;99.90;;;;;;5067647;28;20207;-78
2022/07/01 01:04:52;;;;;;;3.90;1.87;;;15.00;99.90;;;;;;5064753;28;20236;-78
2022/07/01 01:07:19;;;;;;;1.70;1.60;;;15.00;99.90;;;;;;5058343;28;20208;-78
2022/07/01 01:09:46;;;;;;;3.97;1.70;;;15.00;99.90;;;;;;5065883;28;20202;-78
2022/07/01 01:12:15;;;;;;;4.30;1.70;;;15.00;99.90;;;;;;5055644;28;20199;-78
2022/07/01 01:14:46;;;;;;;3.77;2.00;;;15.00;99.90;;;;;;5062990;28;20325;-78
2022/07/01 01:17:13;;;;;;;6.53;2.20;;;15.00;99.90;;;;;;5066938;28;20215;-78
2022/07/01 01:19:40;;;;;;;2.73;1.70;;;14.90;99.90;;;;;;5061280;28;20209;-78
2022/07/01 01:22:08;;;;;;;3.13;1.80;;;14.90;99.90;;;;;;5062310;28;20201;-78
2022/07/01 01:24:36;;;;;;;2.60;1.90;;;14.90;99.90;;;;;;5064445;28;20216;-78
2022/07/01 01:27:03;;;;;;;2.73;2.10;;;14.90;99.90;;;;;;5052566;28;20205;-79
2022/07/01 01:29:30;;;;;;;4.13;2.70;;;14.90;99.90;;;;;;5065714;28;20929;-77
2022/07/01 01:31:58;;;;;;;4.73;2.77;;;14.80;99.90;;;;;;5066409;28;20201;-79
2022/07/01 01:34:25;;;;;;;6.50;3.10;;;14.80;99.90;;;;;;5062782;28;20632;-78
2022/07/01 01:36:52;;;;;;;4.33;2.63;;;14.80;99.90;;;;;;5065418;28;20787;-77
2022/07/01 01:39:21;;;;;;;4.30;2.90;;;14.80;99.90;;;;;;5055042;28;20217;-78
2022/07/01 01:41:48;;;;;;;5.10;2.60;;;14.70;99.90;;;;;;5062245;28;20233;-78
2022/07/01 01:44:15;;;;;;;4.20;3.03;;;14.70;99.90;;;;;;5063828;28;20212;-78
2022/07/01 01:46:42;;;;;;;6.47;4.53;;;14.70;99.90;;;;;;5057223;28;20209;-78
2022/07/01 01:49:10;;;;;;;6.93;4.73;;;14.70;99.90;;;;;;5061383;28;20209;-78
2022/07/01 01:51:37;;;;;;;6.93;5.57;;;14.70;99.90;;;;;;5065362;28;20292;-78
2022/07/01 01:54:04;;;;;;;8.80;5.83;;;14.70;99.90;;;;;;5056255;28;20242;-78
2022/07/01 01:56:33;;;;;;;9.00;6.63;;;14.60;99.90;;;;;;5065090;28;20314;-79
2022/07/01 01:59:00;;;;;;;9.90;7.03;;;14.70;99.90;;;;;;5058276;28;20210;-77
2022/07/01 02:01:27;;;;;;;9.00;7.17;;;14.60;99.90;;;;;;5064809;28;20213;-79
2022/07/01 02:03:54;;;;;;;10.83;8.77;;;14.60;99.90;;;;;;5065729;28;20216;-78
2022/07/01 02:06:23;;;;;;;11.93;9.20;;;14.70;99.90;;;;;;5064008;28;20324;-79
2022/07/01 02:08:50;;;;;;;12.87;10.63;;;14.60;99.90;;;;;;5063848;28;20212;-78
2022/07/01 02:11:17;;;;;;;11.63;10.40;;;14.60;99.90;;;;;;5062118;28;20247;-79
2022/07/01 02:13:45;;;;;;;12.40;9.87;;;14.60;99.90;;;;;;5062413;28;20769;-79
2022/07/01 02:16:12;;;;;;;18.07;14.23;;;14.60;99.90;;;;;;5065398;28;20212;-78
2022/07/01 02:18:39;;;;;;;16.33;13.40;;;14.60;99.90;;;;;;5051808;28;20212;-78
2022/07/01 02:21:06;;;;;;;18.23;16.27;;;14.60;99.90;;;;;;5062856;28;20684;-80
2022/07/01 02:23:33;;;;;;;17.70;15.10;;;14.50;99.90;;;;;;5064324;28;20595;-79
2022/07/01 02:26:01;;;;;;;20.77;16.10;;;14.50;99.90;;;;;;5064777;28;20902;-78
2022/07/01 02:28:27;;;;;;;19.30;15.27;;;14.50;99.90;;;;;;5065594;28;20213;-78
2022/07/01 02:30:56;;;;;;;23.33;18.63;;;14.60;99.90;;;;;;5063024;28;20502;-78
2022/07/01 02:33:22;;;;;;;24.33;18.73;;;14.50;99.90;;;;;;5064212;28;20205;-78
2022/07/01 02:35:50;;;;;;;18.13;15.03;;;14.50;99.90;;;;;;5065056;28;20243;-80
2022/07/01 02:38:17;;;;;;;21.73;18.40;;;14.50;99.90;;;;;;5063735;28;20205;-79
2022/07/01 02:40:44;;;;;;;22.97;20.47;;;14.60;99.90;;;;;;5058852;28;20202;-78
2022/07/01 02:43:11;;;;;;;20.50;17.50;;;14.60;99.90;;;;;;5054627;28;20205;-80
2022/07/01 02:45:38;;;;;;;23.57;19.10;;;14.50;99.90;;;;;;5057863;28;20210;-78
2022/07/01 02:48:06;;;;;;;24.90;20.37;;;14.50;99.90;;;;;;5058922;28;20217;-79
2022/07/01 02:50:33;;;;;;;22.27;19.37;;;14.50;99.90;;;;;;5052236;28;20217;-79
2022/07/01 02:53:00;;;;;;;24.07;19.50;;;14.60;99.90;;;;;;5052129;28;20245;-78
2022/07/01 02:55:28;;;;;;;19.43;17.07;;;14.50;99.90;;;;;;5065069;28;20737;-79
2022/07/01 02:57:56;;;;;;;26.43;21.23;;;14.50;99.90;;;;;;5062026;28;20193;-79
2022/07/01 03:00:23;;;;;;;22.37;18.60;;;14.50;99.90;;;;;;5057279;28;20215;-79
2022/07/01 03:02:50;;;;;;;24.17;19.30;;;14.50;99.90;;;;;;5065285;28;20197;-79
2022/07/01 03:05:18;;;;;;;22.97;19.07;;;14.50;99.90;;;;;;5064646;28;20205;-80
2022/07/01 03:07:45;;;;;;;21.77;17.53;;;14.50;99.90;;;;;;5057570;28;20217;-79
2022/07/01 03:10:12;;;;;;;23.33;18.70;;;14.50;99.90;;;;;;5065800;28;20213;-80
2022/07/01 03:12:40;;;;;;;20.27;15.90;;;14.50;99.90;;;;;;5063565;28;20209;-79
2022/07/01 03:15:08;;;;;;;18.23;15.77;;;14.50;99.90;;;;;;5065618;28;20307;-79
2022/07/01 03:17:38;;;;;;;17.87;15.60;;;14.50;99.90;;;;;;5063050;28;20208;-79
2022/07/01 03:20:06;;;;;;;19.67;15.63;;;14.50;99.90;;;;;;5064925;28;20205;-78
2022/07/01 03:22:35;;;;;;;20.73;16.07;;;14.40;99.90;;;;;;5059387;28;20206;-79
2022/07/01 03:25:03;;;;;;;18.93;16.60;;;14.40;99.90;;;;;;5063377;28;20682;-79
2022/07/01 03:27:32;;;;;;;20.63;16.90;;;14.40;99.90;;;;;;5064879;28;20523;-79
2022/07/01 03:29:59;;;;;;;21.97;15.83;;;14.40;99.90;;;;;;5068571;28;20600;-79
2022/07/01 03:32:26;;;;;;;18.23;13.10;;;14.40;99.90;;;;;;5060805;28;20209;-80
2022/07/01 03:34:54;;;;;;;15.57;12.67;;;14.40;99.90;;;;;;5068523;28;20224;-79
2022/07/01 03:37:22;;;;;;;19.37;13.10;;;14.50;99.90;;;;;;5069356;28;20223;-80
2022/07/01 03:39:50;;;;;;;14.27;10.80;;;14.40;99.90;;;;;;5062090;28;20582;-79
2022/07/01 03:42:17;;;;;;;14.60;11.03;;;14.50;99.90;;;;;;5068869;28;20248;-79
2022/07/01 03:44:45;;;;;;;17.57;11.90;;;14.50;99.90;;;;;;5069364;28;20292;-80
2022/07/01 03:47:12;;;;;;;16.67;11.33;;;14.50;99.90;;;;;;5068282;28;20201;-79
2022/07/01 03:49:39;;;;;;;13.37;10.90;;;14.50;99.90;;;;;;5055930;28;20205;-79
2022/07/01 03:52:07;;;;;;;13.50;9.93;;;14.50;99.90;;;;;;5069456;28;20777;-79
2022/07/01 03:54:35;;;;;;;14.60;9.30;;;14.50;99.90;;;;;;5055437;28;20225;-79
2022/07/01 03:57:05;;;;;;;12.80;9.07;;;14.50;99.90;;;;;;5069351;28;20365;-80
2022/07/01 03:59:35;;;;;;;13.27;8.33;;;14.50;99.90;;;;;;5064721;28;20483;-80
2022/07/01 04:02:02;;;;;;;9.83;7.03;;;14.50;99.90;;;;;;5058408;28;20263;-80
2022/07/01 04:04:29;;;;;;;10.60;7.00;;;14.40;99.90;;;;;;5068290;28;20604;-80
2022/07/01 04:06:58;;;;;;;10.87;6.03;;;14.40;99.90;;;;;;5068995;28;20201;-81
2022/07/01 04:09:26;;;;;;;18.00;4.30;;;14.40;99.90;;;;;;5064551;28;20872;-79
2022/07/01 04:11:53;;;;;;;6.93;3.43;;;14.50;99.90;;;;;;5059016;28;20213;-79
2022/07/01 04:14:23;;;;;;;14.53;4.00;;;14.50;99.90;;;;;;5068277;28;20600;-79
2022/07/01 04:16:51;;;;;;;8.13;4.23;;;14.60;99.90;;;;;;5066643;28;20673;-78
2022/07/01 04:19:18;;;;;;;14.27;4.83;;;14.60;99.90;;;;;;5067459;28;20209;-78
2022/07/01 04:24:32;;;;;;;9.30;4.57;;;14.80;99.90;;;;;;5066675;28;20312;-78
2022/07/01 04:26:59;;;;;;;11.03;4.10;;;14.80;99.90;;;;;;5066403;28;20205;-79
2022/07/01 04:29:28;;;;;;;6.57;2.30;;;14.80;99.90;;;;;;5066595;28;20205;-78
2022/07/01 04:31:55;;;;;;;5.60;2.20;;;14.90;99.90;;;;;;5067137;28;20205;-80
2022/07/01 04:34:22;;;;;;;6.80;1.80;;;15.00;99.90;;;;;;5062441;28;20201;-78
2022/07/01 04:36:49;;;;;;;4.77;1.63;;;15.00;99.90;;;;;;5065938;28;20235;-79
2022/07/01 04:39:16;;;;;;;3.67;1.70;;;15.10;99.90;;;;;;5066819;28;20546;-78
2022/07/01 04:42:01;;;;;;;6.67;2.43;;;15.20;99.90;;;;;;5057237;28;20261;-78
2022/07/01 04:44:30;;;;;;;7.17;2.10;;;15.30;99.90;;;;;;5066315;28;21054;-79
2022/07/01 04:46:57;;;;;;;8.83;2.27;;;15.30;99.90;;;;;;5054640;28;20209;-78
2022/07/01 04:49:24;;;;;;;8.40;1.53;;;15.40;99.90;;;;;;5064903;28;20619;-78
2022/07/01 04:51:52;;;;;;;5.00;1.73;;;15.40;99.90;;;;;;5054880;28;20206;-79
2022/07/01 04:54:19;;;;;;;8.85;1.80;;;15.50;99.90;;;;;;5052829;28;20232;-78
2022/07/01 04:56:46;;;;;;;9.68;2.45;;;15.60;99.90;;;;;;5066062;28;20237;-78
2022/07/01 04:59:13;;;;;;;8.32;2.30;;;15.70;99.90;;;;;;5066723;28;20205;-78
2022/07/01 05:01:41;;;;;;;6.07;1.92;;;15.80;99.90;;;;;;5062684;28;20205;-78
2022/07/01 05:04:08;;;;;;;9.77;2.78;;;15.90;99.90;;;;;;5066392;28;20205;-78
2022/07/01 05:06:35;;;;;;;5.18;1.70;;;15.90;99.90;;;;;;5066080;28;20259;-79
2022/07/01 05:09:02;;;;;;;4.38;1.60;;;15.90;99.90;;;;;;5055288;28;20232;-77
2022/07/01 05:11:29;;;;;;;5.85;1.63;;;16.00;99.90;;;;;;5063832;28;20209;-78
2022/07/01 05:13:56;;;;;;;5.78;1.70;;;16.10;99.90;;;;;;5066640;28;20209;-79
2022/07/01 05:16:23;;;;;;;4.88;2.00;;;16.20;99.90;;;;;;5059085;28;20225;-77
2022/07/01 05:24:20;;;;;;;5.45;1.65;;;16.50;99.90;;;;;;5064606;28;20200;-78
2022/07/01 05:26:46;;;;;;;5.32;2.08;;;16.60;99.90;;;;;;5052615;28;20205;-78
2022/07/01 05:29:14;;;;;;;5.30;1.60;;;16.60;99.90;;;;;;5061787;28;20198;-78
2022/07/01 05:31:41;;;;;;;5.90;1.70;;;16.70;99.90;;;;;;5062589;28;20315;-77
2022/07/01 05:34:09;;;;;;;4.90;1.42;;;16.80;99.90;;;;;;5057699;28;20216;-77
2022/07/01 05:36:36;;;;;;;5.03;1.40;;;16.90;99.90;;;;;;5060191;28;20231;-78
2022/07/01 05:39:04;;;;;;;2.65;1.23;;;17.00;99.90;;;;;;5067023;28;20208;-79
2022/07/01 05:41:31;;;;;;;3.25;1.30;;;17.00;99.90;;;;;;5067923;28;20249;-78
2022/07/01 05:43:58;;;;;;;4.90;1.55;;;16.90;99.90;;;;;;5066891;28;20212;-77
2022/07/01 05:46:25;;;;;;;5.22;1.42;;;17.00;99.90;;;;;;5066174;28;20635;-78
2022/07/01 05:48:51;;;;;;;3.92;1.67;;;17.10;99.90;;;;;;5078449;28;20213;-77
2022/07/01 05:51:20;;;;;;;6.22;1.77;;;17.40;99.90;;;;;;5067696;28;20211;-77
2022/07/01 05:53:47;;;;;;;8.25;1.83;;;17.70;99.90;;;;;;5053810;28;20234;-78
2022/07/01 05:56:15;;;;;;;6.43;1.90;;;18.00;99.90;;;;;;5063086;28;20217;-78
2022/07/01 05:58:41;;;;;;;5.47;1.67;;;18.00;99.90;;;;;;5059614;28;20280;-77
2022/07/01 06:01:08;;;;;;;8.98;2.03;;;18.00;99.90;;;;;;5060587;28;20216;-78
2022/07/01 06:03:35;;;;;;;4.47;1.50;;;18.00;99.90;;;;;;5064347;28;20621;-78
2022/07/01 06:06:02;;;;;;;3.58;1.70;;;18.00;99.90;;;;;;5064527;28;20767;-78
2022/07/01 06:08:31;;;;;;;6.55;1.60;;;18.00;99.90;;;;;;5053299;28;20213;-79
2022/07/01 06:10:57;;;;;;;3.83;1.48;;;17.90;99.90;;;;;;5064989;28;20219;-78
2022/07/01 06:13:24;;;;;;;5.25;1.80;;;17.80;99.90;;;;;;5050287;28;20878;-78
2022/07/01 06:15:51;;;;;;;6.55;2.17;;;17.80;99.90;;;;;;5051716;28;20877;-78
2022/07/01 06:18:18;;;;;;;5.93;2.17;;;17.70;99.90;;;;;;5063754;28;20221;-78
2022/07/01 06:20:45;;;;;;;4.05;1.83;;;17.80;99.90;;;;;;5064398;28;20204;-78
2022/07/01 06:23:12;;;;;;;6.57;1.92;;;17.90;99.90;;;;;;5061178;28;20244;-78
2022/07/01 06:25:40;;;;;;;7.47;2.00;;;18.00;99.90;;;;;;5056813;28;20197;-77
2022/07/01 06:28:07;;;;;;;5.78;1.92;;;18.00;99.90;;;;;;5063951;28;20944;-79
2022/07/01 06:30:34;;;;;;;6.85;2.20;;;18.00;99.90;;;;;;5062611;28;20216;-78
2022/07/01 06:33:01;;;;;;;7.57;1.90;;;18.30;99.90;;;;;;5057676;28;20201;-79
2022/07/01 06:35:27;;;;;;;5.88;1.55;;;18.70;99.90;;;;;;5058415;28;20300;-78
2022/07/01 06:37:54;;;;;;;4.22;1.80;;;18.80;99.90;;;;;;5059710;28;20216;-79
2022/07/01 06:40:21;;;;;;;3.33;1.80;;;18.90;99.90;;;;;;5063368;28;20540;-77
2022/07/01 06:42:50;;;;;;;5.53;1.58;;;19.30;99.90;;;;;;5053641;28;20343;-78
2022/07/01 06:45:17;;;;;;;6.35;1.83;;;19.40;99.90;;;;;;5057247;28;20213;-77
2022/07/01 06:47:44;;;;;;;3.30;1.30;;;19.40;99.90;;;;;;5062708;28;20205;-77
2022/07/01 06:50:11;;;;;;;5.95;1.58;;;19.20;99.90;;;;;;5063324;28;20209;-79
2022/07/01 06:52:38;;;;;;;4.38;1.40;;;19.20;99.90;;;;;;5062902;28;20224;-79
2022/07/01 06:55:05;;;;;;;6.03;1.55;;;19.30;99.90;;;;;;5059934;28;20214;-79
2022/07/01 06:57:33;;;;;;;8.15;1.75;;;19.30;99.90;;;;;;5059300;28;20304;-79
2022/07/01 07:00:01;;;;;;;6.47;1.60;;;19.10;99.90;;;;;;5056990;28;20264;-79
2022/07/01 07:02:28;;;;;;;9.07;1.83;;;19.30;99.90;;;;;;5058300;28;20290;-79
2022/07/01 07:04:57;;;;;;;3.50;1.50;;;19.70;99.90;;;;;;5059454;28;20506;-78
2022/07/01 07:07:27;;;;;;;3.47;1.30;;;19.80;99.90;;;;;;5060850;28;20298;-79
2022/07/01 07:09:55;;;;;;;4.47;1.33;;;19.80;99.90;;;;;;5068634;28;20206;-78
2022/07/01 07:12:22;;;;;;;5.13;1.63;;;19.80;99.90;;;;;;5068230;28;20213;-78
2022/07/01 07:14:49;;;;;;;5.65;1.73;;;20.10;99.90;;;;;;5059837;28;20208;-79
2022/07/01 07:17:17;;;;;;;3.72;1.30;;;20.50;99.90;;;;;;5068244;28;20225;-79
2022/07/01 07:19:44;;;;;;;6.57;1.80;;;20.70;99.90;;;;;;5060403;28;20217;-77
2022/07/01 07:22:11;;;;;;;12.75;2.42;;;20.90;99.90;;;;;;5068402;28;20217;-78
2022/07/01 07:24:38;;;;;;;5.90;2.20;;;21.00;99.90;;;;;;5054340;28;20217;-78
2022/07/01 07:27:05;;;;;;;9.00;2.00;;;21.10;99.90;;;;;;5068348;28;20193;-79
2022/07/01 07:29:32;;;;;;;4.55;1.73;;;21.00;99.90;;;;;;5067349;28;20216;-76
2022/07/01 07:31:59;;;;;;;9.13;2.35;;;20.80;99.90;;;;;;5066076;28;20208;-79
2022/07/01 07:34:27;;;;;;;6.97;2.08;;;20.60;99.90;;;;;;5066816;28;20212;-79
2022/07/01 07:36:54;;;;;;;7.70;2.38;;;20.40;99.90;;;;;;5077686;22;20678;-79
2022/07/01 07:39:21;;;;;;;11.13;2.70;;;20.20;99.90;;;;;;5076705;28;20204;-79
2022/07/01 07:41:49;;;;;;;4.95;1.67;;;20.10;99.90;;;;;;5087562;28;20200;-79
2022/07/01 07:44:16;;;;;;;5.07;1.65;;;19.80;99.90;;;;;;5087672;28;20196;-77
2022/07/01 07:46:43;;;;;;;5.35;1.70;;;19.90;99.90;;;;;;5086810;28;20204;-79
2022/07/01 07:49:10;;;;;;;5.50;1.63;;;20.30;99.90;;;;;;5085236;28;20499;-80
2022/07/01 07:51:38;;;;;;;3.80;1.25;;;20.40;99.90;;;;;;5087684;28;20231;-79
2022/07/01 07:54:05;;;;;;;5.80;1.27;;;20.40;99.90;;;;;;5085693;28;20554;-78
2022/07/01 07:56:32;;;;;;;3.85;1.05;;;20.40;99.90;;;;;;5086078;28;20221;-79
2022/07/01 07:58:59;;;;;;;3.50;1.02;;;20.60;99.90;;;;;;5087929;28;20208;-79
2022/07/01 08:01:26;;;;;;;6.47;1.73;;;21.20;99.90;;;;;;5087143;28;20207;-80
2022/07/01 08:03:53;;;;;;;3.40;1.20;;;21.40;99.90;;;;;;5087402;28;20216;-78
2022/07/01 08:06:20;;;;;;;3.33;1.10;;;21.60;99.90;;;;;;5081432;28;20200;-79
2022/07/01 08:08:48;;;;;;;2.75;1.23;;;21.80;99.90;;;;;;5086014;28;20231;-79
2022/07/01 08:11:15;;;;;;;3.55;1.85;;;22.00;99.90;;;;;;5084378;28;20861;-83
2022/07/01 08:13:42;;;;;;;4.80;1.30;;;22.10;99.90;;;;;;5088685;28;20228;-79
2022/07/01 08:16:09;;;;;;;4.80;2.00;;;22.20;99.90;;;;;;5086897;28;20271;-79
2022/07/01 08:18:36;;;;;;;4.63;1.85;;;22.40;99.90;;;;;;5087527;28;20211;-79
2022/07/01 08:21:03;;;;;;;6.88;1.42;;;22.60;99.90;;;;;;5079530;28;20213;-78
2022/07/01 08:23:30;;;;;;;3.45;1.13;;;23.00;99.90;;;;;;5085723;28;20335;-76
2022/07/01 08:25:58;;;;;;;4.13;1.08;;;23.50;99.90;;;;;;5080974;28;20571;-76
2022/07/01 08:28:25;;;;;;;3.40;0.90;;;23.80;99.90;;;;;;5080243;28;20901;-78
2022/07/01 08:30:52;;;;;;;2.33;1.00;;;24.10;99.90;;;;;;5076362;28;20200;-79
2022/07/01 08:33:19;;;;;;;5.43;1.95;;;24.10;99.90;;;;;;5087370;28;20204;-78
2022/07/01 08:35:46;;;;;;;2.83;0.90;;;24.10;99.90;;;;;;5083004;28;20207;-78
2022/07/01 08:38:13;;;;;;;5.28;0.90;;;24.20;99.90;;;;;;5086837;28;20239;-79
2022/07/01 08:40:41;;;;;;;2.75;1.00;;;24.30;99.90;;;;;;5075899;28;20247;-80
2022/07/01 08:43:09;;;;;;;4.65;1.25;;;24.30;99.90;;;;;;5083983;28;20200;-80
2022/07/01 08:45:37;;;;;;;4.20;0.95;;;24.30;99.90;;;;;;5076793;28;20221;-81
2022/07/01 08:48:05;;;;;;;3.60;1.10;;;24.50;99.90;;;;;;5086204;28;20208;-80
2022/07/01 08:50:37;;;;;;;4.15;1.20;;;24.40;99.90;;;;;;5073703;28;20205;-78
2022/07/01 08:53:04;;;;;;;2.45;0.90;;;24.50;99.90;;;;;;5063692;28;20239;-78
2022/07/01 08:55:31;;;;;;;4.05;1.23;;;24.50;99.90;;;;;;5067098;28;20235;-78
2022/07/01 08:57:59;;;;;;;4.90;1.50;;;24.70;99.90;;;;;;5069879;28;20664;-78
2022/07/01 09:00:34;;;;;;;3.80;1.15;;;24.20;99.90;;;;;;5072238;28;20731;-80
2022/07/01 09:03:02;;;;;;;6.00;1.35;;;23.80;99.90;;;;;;5074143;28;20560;-79
2022/07/01 09:05:31;;;;;;;5.38;1.50;;;24.00;99.90;;;;;;5079012;28;20208;-79
2022/07/01 09:08:00;;;;;;;3.25;1.40;;;24.20;99.90;;;;;;5077581;28;20323;-78
2022/07/01 09:10:30;;;;;;;5.03;1.20;;;24.60;99.90;;;;;;5076140;28;20217;-81
2022/07/01 09:12:58;;;;;;;5.18;1.42;;;24.70;99.90;;;;;;5067553;28;20228;-80
2022/07/01 09:15:27;;;;;;;2.90;1.25;;;24.80;99.90;;;;;;5076091;28;20221;-80
2022/07/01 09:17:57;;;;;;;3.47;1.17;;;24.90;99.90;;;;;;5074948;28;20619;-80
2022/07/01 09:20:29;;;;;;;7.63;1.60;;;24.70;99.90;;;;;;5070991;28;20213;-79
2022/07/01 09:23:05;;;;;;;5.53;1.50;;;25.00;99.90;;;;;;5081146;28;20216;-80
2022/07/01 09:25:34;;;;;;;6.68;1.48;;;25.30;99.90;;;;;;5073542;28;20502;-80
2022/07/01 09:28:05;;;;;;;4.75;1.40;;;25.30;99.90;;;;;;5084440;28;20495;-80
2022/07/01 09:30:33;;;;;;;4.75;1.30;;;25.30;99.90;;;;;;5070372;28;20212;-80
2022/07/01 09:33:09;;;;;;;4.53;1.52;;;24.90;99.90;;;;;;5085876;28;20302;-79
2022/07/01 09:35:37;;;;;;;4.50;1.13;;;24.80;99.90;;;;;;5079806;28;20207;-80
2022/07/01 09:38:05;;;;;;;3.45;1.40;;;24.90;99.90;;;;;;5085557;28;20323;-80
2022/07/01 09:40:53;;;;;;;4.57;1.45;;;24.80;99.90;;;;;;5069689;28;20893;-79
2022/07/01 09:43:21;;;;;;;6.25;1.65;;;24.70;99.90;;;;;;5074647;28;20668;-79
2022/07/01 09:45:57;;;;;;;5.80;1.45;;;24.50;99.90;;;;;;5084986;28;20344;-79
2022/07/01 09:48:28;;;;;;;7.90;1.65;;;24.40;99.90;;;;;;5086468;28;20204;-78
2022/07/01 09:50:55;;;;;;;6.03;1.50;;;24.40;99.90;;;;;;5085524;28;20212;-79
2022/07/01 09:53:22;;;;;;;4.13;1.35;;;24.20;99.90;;;;;;5077047;28;20225;-79
2022/07/01 09:55:50;;;;;;;4.75;1.42;;;24.30;99.90;;;;;;5080548;28;20258;-79
2022/07/01 09:58:17;;;;;;;4.80;1.50;;;24.20;99.90;;;;;;5072350;28;20574;-80
2022/07/01 10:00:45;;;;;;;3.17;1.17;;;23.90;99.90;;;;;;5084679;28;20211;-82
2022/07/01 10:03:13;;;;;;;4.22;1.50;;;24.30;99.90;;;;;;5084943;28;20197;-80
2022/07/01 10:05:46;;;;;;;7.32;1.45;;;24.50;99.90;;;;;;5083429;28;20211;-79
2022/07/01 10:08:31;;;;;;;6.28;1.58;;;24.50;99.90;;;;;;5083714;28;20518;-79
2022/07/01 10:11:12;;;;;;;5.53;1.58;;;24.10;99.90;;;;;;5079737;28;20198;-79
2022/07/01 10:13:41;;;;;;;5.57;1.40;;;24.00;99.90;;;;;;5079261;28;20192;-80
2022/07/01 10:16:09;;;;;;;6.22;1.20;;;23.90;99.90;;;;;;5084332;28;20203;-80
2022/07/01 10:18:36;;;;;;;4.60;1.33;;;24.20;99.90;;;;;;5081357;28;20209;-80
2022/07/01 10:21:05;;;;;;;9.07;2.08;;;24.40;99.90;;;;;;5075437;28;20220;-81
2022/07/01 10:23:39;;;;;;;4.55;1.33;;;24.70;99.90;;;;;;5083171;28;20208;-80
2022/07/01 10:26:10;;;;;;;8.20;1.27;;;25.10;99.90;;;;;;5074999;28;20300;-79
2022/07/01 10:28:45;;;;;;;5.57;1.70;;;25.10;99.90;;;;;;5069602;28;20228;-81
2022/07/01 10:31:15;;;;;;;4.00;1.20;;;25.10;99.90;;;;;;5084625;28;20877;-78
2022/07/01 10:33:47;;;;;;;6.75;1.40;;;25.10;99.90;;;;;;5076189;28;20200;-82
2022/07/01 10:36:18;;;;;;;5.07;1.60;;;24.90;99.90;;;;;;5084024;28;20605;-80
2022/07/01 10:39:22;;;;;;;9.70;1.55;;;24.60;99.90;;;;;;5073569;28;20207;-81
2022/07/01 10:42:08;;;;;;;7.78;1.63;;;24.70;99.90;;;;;;5075185;28;20223;-82
2022/07/01 10:44:37;;;;;;;3.88;1.05;;;24.60;99.90;;;;;;5081117;28;20241;-81
2022/07/01 10:47:07;;;;;;;7.03;1.40;;;24.70;99.90;;;;;;5071412;28;20204;-80
2022/07/01 10:49:58;;;;;;;4.35;1.23;;;24.70;99.90;;;;;;5087056;28;20209;-80
2022/07/01 10:52:26;;;;;;;3.78;1.20;;;24.60;99.90;;;;;;5087390;28;20950;-79
2022/07/01 10:54:55;;;;;;;6.43;1.75;;;24.30;99.90;;;;;;5081678;28;20193;-81
2022/07/01 10:57:27;;;;;;;5.80;1.65;;;24.40;99.90;;;;;;5088861;28;20231;-80
2022/07/01 10:59:56;;;;;;;6.25;1.20;;;24.50;99.90;;;;;;5087786;28;20264;-78
2022/07/01 11:02:25;;;;;;;5.47;1.70;;;24.60;99.90;;;;;;5074866;28;20569;-79
2022/07/01 11:04:54;;;;;;;4.57;1.25;;;24.90;99.90;;;;;;5087883;28;20278;-80
2022/07/01 11:07:21;;;;;;;5.05;1.50;;;25.10;99.90;;;;;;5087831;28;20212;-78
2022/07/01 11:09:49;;;;;;;5.80;1.60;;;25.00;99.90;;;;;;5085626;28;20204;-80
2022/07/01 11:12:17;;;;;;;4.05;1.00;;;25.10;99.90;;;;;;5076021;28;20232;-80
2022/07/01 11:14:44;;;;;;;8.25;1.77;;;25.20;99.90;;;;;;5083283;28;20208;-80
2022/07/01 11:17:11;;;;;;;7.13;1.83;;;25.00;99.90;;;;;;5086010;28;20224;-79
2022/07/01 11:19:38;;;;;;;4.85;1.63;;;24.80;99.90;;;;;;5088216;28;20204;-81
2022/07/01 11:22:06;;;;;;;3.92;1.30;;;24.60;99.90;;;;;;5082677;28;21030;-78
2022/07/01 11:24:33;;;;;;;5.65;1.70;;;24.50;99.90;;;;;;5087761;28;20200;-80
2022/07/01 11:27:08;;;;;;;6.10;1.80;;;24.50;99.90;;;;;;5087471;28;20209;-79
2022/07/01 11:29:35;;;;;;;5.47;1.48;;;24.70;99.90;;;;;;5074080;28;20703;-79
2022/07/01 11:32:02;;;;;;;7.30;1.77;;;24.80;99.90;;;;;;5085773;28;20204;-81
2022/07/01 11:34:30;;;;;;;5.50;1.30;;;24.90;99.90;;;;;;5087126;28;20204;-80
2022/07/01 11:39:43;;;;;;;7.35;1.60;;;25.20;99.90;;;;;;5078605;28;20205;-78
2022/07/01 11:42:11;;;;;;;4.38;1.45;;;24.80;99.90;;;;;;5081993;28;20617;-79
2022/07/01 11:44:41;;;;;;;5.35;1.42;;;24.80;99.90;;;;;;5087160;28;20220;-82
2022/07/01 11:47:11;;;;;;;7.07;1.60;;;24.90;99.90;;;;;;5087602;28;20200;-81
2022/07/01 11:49:45;;;;;;;6.45;1.67;;;25.10;99.90;;;;;;5086008;28;20213;-80
2022/07/01 11:52:12;;;;;;;4.93;1.17;;;25.30;99.90;;;;;;5087050;28;20228;-82
2022/07/01 11:54:39;;;;;;;4.57;1.38;;;25.30;99.90;;;;;;5075699;28;20212;-80
2022/07/01 11:57:13;;;;;;;5.65;1.65;;;25.10;99.90;;;;;;5081400;28;20225;-83
2022/07/01 11:59:40;;;;;;;5.30;1.50;;;24.90;99.90;;;;;;5080048;28;20205;-79
2022/07/01 12:02:08;;;;;;;6.35;1.88;;;24.80;99.90;;;;;;5078849;28;20216;-80
2022/07/01 12:04:35;;;;;;;4.75;1.25;;;25.00;99.90;;;;;;5086617;28;20566;-78
2022/07/01 12:07:02;;;;;;;3.65;1.50;;;25.10;99.90;;;;;;5077971;28;20518;-78
2022/07/01 12:09:29;;;;;;;5.78;1.95;;;25.00;99.90;;;;;;5086574;28;20220;-78
2022/07/01 12:11:56;;;;;;;5.38;1.70;;;25.10;99.90;;;;;;5079394;28;20577;-78
2022/07/01 12:14:26;;;;;;;5.18;1.27;;;25.10;99.90;;;;;;5079955;28;20204;-78
2022/07/01 12:16:54;;;;;;;6.25;1.20;;;25.00;99.90;;;;;;5086934;28;20208;-79
2022/07/01 12:19:21;;;;;;;4.88;1.10;;;25.10;99.90;;;;;;5082957;28;20633;-77
2022/07/01 12:21:50;;;;;;;6.68;2.08;;;25.00;99.90;;;;;;5084440;28;20608;-77
2022/07/01 12:24:21;;;;;;;5.40;1.50;;;25.20;99.90;;;;;;5086776;28;20647;-78
2022/07/01 12:26:50;;;;;;;4.20;1.23;;;25.20;99.90;;;;;;5072826;28;20236;-79
2022/07/01 12:29:18;;;;;;;3.33;1.40;;;25.20;99.90;;;;;;5080930;28;20217;-78
2022/07/01 12:31:56;;;;;;;5.18;1.85;;;25.10;99.90;;;;;;5073018;28;20201;-82
2022/07/01 12:34:23;;;;;;;4.35;1.30;;;25.10;99.90;;;;;;5082506;28;20211;-79
2022/07/01 12:36:50;;;;;;;6.15;1.52;;;25.20;99.90;;;;;;5083620;28;20243;-81
2022/07/01 12:39:17;;;;;;;6.28;1.52;;;25.20;99.90;;;;;;5086266;28;20663;-79
2022/07/01 12:41:51;;;;;;;5.22;1.45;;;25.10;99.90;;;;;;5085236;28;20232;-76
2022/07/01 12:44:22;;;;;;;5.15;1.20;;;24.80;99.90;;;;;;5086776;28;20592;-80
2022/07/01 12:46:51;;;;;;;6.93;1.70;;;24.80;99.90;;;;;;5080001;28;20208;-78
2022/07/01 12:49:22;;;;;;;7.65;2.13;;;24.70;99.90;;;;;;5073594;28;20539;-80
2022/07/01 12:51:50;;;;;;;3.88;1.50;;;24.80;99.90;;;;;;5075977;28;20200;-80
2022/07/01 12:54:32;;;;;;;7.45;1.70;;;24.60;99.90;;;;;;5085895;28;20208;-78
2022/07/01 12:56:59;;;;;;;7.10;1.70;;;24.70;99.90;;;;;;5075277;28;20211;-78
2022/07/01 12:59:26;;;;;;;5.90;1.98;;;24.80;99.90;;;;;;5082561;28;20209;-79